sensor_id;sensor_type;location;lat;lon;timestamp;pressure;altitude;pressure_sealevel;temperature;humidity
11349;BME280;5729;43.570;27.826;2022-09-21T00:01:53;99086.78;;;13.02;100.00
11349;BME280;5729;43.570;27.826;2022-09-21T00:04:19;99086.75;;;12.99;100.00
11349;BME280;5729;43.570;27.826;2022-09-21T00:06:44;99080.91;;;12.93;100.00
11349;BME280;5729;43.570;27.826;2022-09-21T00:09:10;99071.28;;;12.96;100.00
11349;BME280;5729;43.570;27.826;2022-09-21T00:11:36;99084.81;;;12.99;100.00
11349;BME280;5729;43.570;27.826;2022-09-21T00:14:05;99089.91;;;13.04;100.00
11349;BME280;5729;43.570;27.826;2022-09-21T00:16:33;99075.97;;;13.02;100.00
11349;BME280;5729;43.570;27.826;2022-09-21T00:18:59;99077.09;;;12.98;100.00
11349;BME280;5729;43.570;27.826;2022-09-21T00:21:25;99074.69;;;12.89;100.00
11349;BME280;5729;43.570;27.826;2022-09-21T00:23:52;99079.63;;;12.80;100.00
11349;BME280;5729;43.570;27.826;2022-09-21T00:26:20;99074.03;;;12.66;100.00
11349;BME280;5729;43.570;27.826;2022-09-21T00:28:46;99069.31;;;12.56;100.00
11349;BME280;5729;43.570;27.826;2022-09-21T00:31:15;99077.13;;;12.64;100.00
11349;BME280;5729;43.570;27.826;2022-09-21T00:33:42;99072.88;;;12.63;100.00
11349;BME280;5729;43.570;27.826;2022-09-21T00:36:11;99071.69;;;12.61;100.00
11349;BME280;5729;43.570;27.826;2022-09-21T00:38:37;99065.78;;;12.52;100.00
11349;BME280;5729;43.570;27.826;2022-09-21T00:41:04;99063.09;;;12.52;100.00
11349;BME280;5729;43.570;27.826;2022-09-21T00:43:33;99075.84;;;12.51;100.00
11349;BME280;5729;43.570;27.826;2022-09-21T00:46:02;99068.50;;;12.52;100.00
11349;BME280;5729;43.570;27.826;2022-09-21T00:48:29;99085.56;;;12.59;100.00
11349;BME280;5729;43.570;27.826;2022-09-21T00:50:58;99082.50;;;12.61;100.00
11349;BME280;5729;43.570;27.826;2022-09-21T00:53:26;99085.63;;;12.63;100.00
11349;BME280;5729;43.570;27.826;2022-09-21T00:55:55;99072.41;;;12.58;100.00
11349;BME280;5729;43.570;27.826;2022-09-21T00:58:35;99068.25;;;12.64;100.00
11349;BME280;5729;43.570;27.826;2022-09-21T01:01:03;99074.13;;;12.73;100.00
11349;BME280;5729;43.570;27.826;2022-09-21T01:03:30;99079.97;;;12.75;100.00
11349;BME280;5729;43.570;27.826;2022-09-21T01:05:56;99083.41;;;12.76;100.00
11349;BME280;5729;43.570;27.826;2022-09-21T01:08:23;99081.50;;;12.76;100.00
11349;BME280;5729;43.570;27.826;2022-09-21T01:16:25;99093.06;;;12.73;100.00
11349;BME280;5729;43.570;27.826;2022-09-21T01:21:46;99082.91;;;12.63;100.00
11349;BME280;5729;43.570;27.826;2022-09-21T01:24:39;99085.22;;;12.64;100.00
11349;BME280;5729;43.570;27.826;2022-09-21T01:27:21;99081.00;;;12.63;100.00
11349;BME280;5729;43.570;27.826;2022-09-21T01:32:29;99086.78;;;12.65;100.00
11349;BME280;5729;43.570;27.826;2022-09-21T01:35:02;99081.41;;;12.69;100.00
11349;BME280;5729;43.570;27.826;2022-09-21T01:37:34;99085.28;;;12.68;100.00
11349;BME280;5729;43.570;27.826;2022-09-21T01:40:07;99065.78;;;12.52;100.00
11349;BME280;5729;43.570;27.826;2022-09-21T01:42:37;99073.97;;;12.59;100.00
11349;BME280;5729;43.570;27.826;2022-09-21T01:45:06;99073.84;;;12.48;100.00
11349;BME280;5729;43.570;27.826;2022-09-21T01:47:35;99065.25;;;12.39;100.00
11349;BME280;5729;43.570;27.826;2022-09-21T01:50:05;99079.22;;;12.45;100.00
11349;BME280;5729;43.570;27.826;2022-09-21T01:53:01;99074.53;;;12.42;100.00
11349;BME280;5729;43.570;27.826;2022-09-21T01:55:38;99077.66;;;12.44;100.00
11349;BME280;5729;43.570;27.826;2022-09-21T01:58:18;99057.06;;;12.32;100.00
11349;BME280;5729;43.570;27.826;2022-09-21T02:00:47;99064.13;;;12.44;100.00
11349;BME280;5729;43.570;27.826;2022-09-21T02:03:21;99066.44;;;12.42;100.00
11349;BME280;5729;43.570;27.826;2022-09-21T02:05:49;99060.28;;;12.41;100.00
11349;BME280;5729;43.570;27.826;2022-09-21T02:08:15;99069.59;;;12.47;100.00
11349;BME280;5729;43.570;27.826;2022-09-21T02:10:47;99068.09;;;12.50;100.00
11349;BME280;5729;43.570;27.826;2022-09-21T02:13:14;99064.19;;;12.47;100.00
11349;BME280;5729;43.570;27.826;2022-09-21T02:16:12;99074.88;;;12.36;100.00
11349;BME280;5729;43.570;27.826;2022-09-21T02:24:26;99074.88;;;12.36;100.00
11349;BME280;5729;43.570;27.826;2022-09-21T02:29:55;99074.88;;;12.36;100.00
11349;BME280;5729;43.570;27.826;2022-09-21T02:42:40;99069.22;;;12.15;100.00
11349;BME280;5729;43.570;27.826;2022-09-21T02:45:27;99078.81;;;12.13;100.00
11349;BME280;5729;43.570;27.826;2022-09-21T02:50:34;99085.06;;;12.17;100.00
11349;BME280;5729;43.570;27.826;2022-09-21T02:53:02;99079.19;;;12.11;100.00
11349;BME280;5729;43.570;27.826;2022-09-21T02:55:30;99076.41;;;12.08;100.00
11349;BME280;5729;43.570;27.826;2022-09-21T02:57:56;99082.25;;;12.10;100.00
11349;BME280;5729;43.570;27.826;2022-09-21T03:00:23;99079.88;;;12.05;100.00
11349;BME280;5729;43.570;27.826;2022-09-21T03:02:48;99075.19;;;12.02;100.00
11349;BME280;5729;43.570;27.826;2022-09-21T03:05:14;99082.59;;;12.08;100.00
11349;BME280;5729;43.570;27.826;2022-09-21T03:07:40;99083.03;;;12.10;100.00
11349;BME280;5729;43.570;27.826;2022-09-21T03:10:05;99081.78;;;12.04;100.00
11349;BME280;5729;43.570;27.826;2022-09-21T03:12:32;99079.81;;;12.01;100.00
11349;BME280;5729;43.570;27.826;2022-09-21T03:14:58;99074.06;;;12.03;100.00
11349;BME280;5729;43.570;27.826;2022-09-21T03:17:24;99085.22;;;12.01;100.00
11349;BME280;5729;43.570;27.826;2022-09-21T03:19:50;99077.84;;;11.98;100.00
11349;BME280;5729;43.570;27.826;2022-09-21T03:22:22;99082.47;;;11.97;100.00
11349;BME280;5729;43.570;27.826;2022-09-21T03:24:48;99076.13;;;11.86;100.00
11349;BME280;5729;43.570;27.826;2022-09-21T03:27:19;99076.59;;;11.92;100.00
11349;BME280;5729;43.570;27.826;2022-09-21T03:29:45;99079.38;;;11.95;100.00
11349;BME280;5729;43.570;27.826;2022-09-21T03:32:12;99069.56;;;11.84;100.00
11349;BME280;5729;43.570;27.826;2022-09-21T03:34:38;99093.19;;;11.90;100.00
11349;BME280;5729;43.570;27.826;2022-09-21T03:37:05;99097.00;;;11.89;100.00
11349;BME280;5729;43.570;27.826;2022-09-21T03:39:31;99081.81;;;11.78;100.00
11349;BME280;5729;43.570;27.826;2022-09-21T03:41:57;99088.75;;;11.79;100.00
11349;BME280;5729;43.570;27.826;2022-09-21T03:44:24;99089.47;;;11.76;100.00
11349;BME280;5729;43.570;27.826;2022-09-21T03:46:50;99077.28;;;11.62;100.00
11349;BME280;5729;43.570;27.826;2022-09-21T03:49:16;99076.22;;;11.67;100.00
11349;BME280;5729;43.570;27.826;2022-09-21T03:51:41;99087.97;;;11.78;100.00
11349;BME280;5729;43.570;27.826;2022-09-21T03:54:07;99081.81;;;11.78;100.00
11349;BME280;5729;43.570;27.826;2022-09-21T03:56:33;99084.16;;;11.79;100.00
11349;BME280;5729;43.570;27.826;2022-09-21T03:58:59;99092.59;;;11.78;100.00
11349;BME280;5729;43.570;27.826;2022-09-21T04:01:24;99089.47;;;11.76;100.00
11349;BME280;5729;43.570;27.826;2022-09-21T04:03:50;99082.09;;;11.73;100.00
11349;BME280;5729;43.570;27.826;2022-09-21T04:06:15;99100.75;;;11.81;100.00
11349;BME280;5729;43.570;27.826;2022-09-21T04:08:41;99098.47;;;11.83;100.00
11349;BME280;5729;43.570;27.826;2022-09-21T04:11:14;99098.44;;;11.80;100.00
11349;BME280;5729;43.570;27.826;2022-09-21T04:13:40;99099.91;;;11.77;100.00
11349;BME280;5729;43.570;27.826;2022-09-21T04:16:08;99111.22;;;11.83;100.00
11349;BME280;5729;43.570;27.826;2022-09-21T04:18:34;99090.59;;;11.75;100.00
11349;BME280;5729;43.570;27.826;2022-09-21T04:21:00;99095.59;;;11.73;100.00
11349;BME280;5729;43.570;27.826;2022-09-21T04:23:25;99111.31;;;11.67;100.00
11349;BME280;5729;43.570;27.826;2022-09-21T04:25:53;99109.16;;;11.53;100.00
11349;BME280;5729;43.570;27.826;2022-09-21T04:28:20;99107.44;;;11.42;100.00
11349;BME280;5729;43.570;27.826;2022-09-21T04:30:45;99112.72;;;11.35;100.00
11349;BME280;5729;43.570;27.826;2022-09-21T04:33:11;99099.91;;;11.28;100.00
11349;BME280;5729;43.570;27.826;2022-09-21T04:35:36;99108.72;;;11.25;100.00
11349;BME280;5729;43.570;27.826;2022-09-21T04:38:03;99100.47;;;11.18;100.00
11349;BME280;5729;43.570;27.826;2022-09-21T04:40:30;99088.44;;;11.12;100.00
11349;BME280;5729;43.570;27.826;2022-09-21T04:42:55;99112.22;;;11.29;100.00
11349;BME280;5729;43.570;27.826;2022-09-21T04:45:22;99108.88;;;11.36;100.00
11349;BME280;5729;43.570;27.826;2022-09-21T04:47:47;99108.09;;;11.35;100.00
11349;BME280;5729;43.570;27.826;2022-09-21T04:50:13;99110.03;;;11.35;100.00
11349;BME280;5729;43.570;27.826;2022-09-21T04:52:39;99123.00;;;11.52;100.00
11349;BME280;5729;43.570;27.826;2022-09-21T04:55:06;99125.31;;;11.50;100.00
11349;BME280;5729;43.570;27.826;2022-09-21T04:57:32;99112.78;;;11.61;100.00
11349;BME280;5729;43.570;27.826;2022-09-21T04:59:58;99115.41;;;11.57;100.00
11349;BME280;5729;43.570;27.826;2022-09-21T05:02:23;99113.78;;;11.76;100.00
11349;BME280;5729;43.570;27.826;2022-09-21T05:04:49;99116.53;;;11.79;100.00
11349;BME280;5729;43.570;27.826;2022-09-21T05:07:15;99106.94;;;11.82;100.00
11349;BME280;5729;43.570;27.826;2022-09-21T05:09:40;99112.06;;;11.90;100.00
11349;BME280;5729;43.570;27.826;2022-09-21T05:12:24;99117.53;;;11.94;100.00
11349;BME280;5729;43.570;27.826;2022-09-21T05:14:50;99115.66;;;11.98;100.00
11349;BME280;5729;43.570;27.826;2022-09-21T05:17:15;99123.50;;;12.07;100.00
11349;BME280;5729;43.570;27.826;2022-09-21T05:19:41;99110.72;;;12.04;100.00
11349;BME280;5729;43.570;27.826;2022-09-21T05:22:07;99120.03;;;12.06;100.00
11349;BME280;5729;43.570;27.826;2022-09-21T05:24:32;99115.44;;;12.10;100.00
11349;BME280;5729;43.570;27.826;2022-09-21T05:26:58;99103.06;;;12.09;100.00
11349;BME280;5729;43.570;27.826;2022-09-21T05:29:23;99104.75;;;12.17;100.00
11349;BME280;5729;43.570;27.826;2022-09-21T05:32:11;99114.94;;;12.31;100.00
11349;BME280;5729;43.570;27.826;2022-09-21T05:35:00;99087.75;;;12.17;100.00
11349;BME280;5729;43.570;27.826;2022-09-21T05:39:58;99114.69;;;12.40;100.00
11349;BME280;5729;43.570;27.826;2022-09-21T05:42:24;99113.06;;;12.35;100.00
11349;BME280;5729;43.570;27.826;2022-09-21T05:44:49;99109.28;;;12.40;100.00
11349;BME280;5729;43.570;27.826;2022-09-21T05:47:38;99111.75;;;12.52;100.00
11349;BME280;5729;43.570;27.826;2022-09-21T05:53:12;99120.78;;;12.66;100.00
11349;BME280;5729;43.570;27.826;2022-09-21T05:55:50;99112.38;;;12.71;100.00
11349;BME280;5729;43.570;27.826;2022-09-21T05:58:27;99116.91;;;12.64;100.00
11349;BME280;5729;43.570;27.826;2022-09-21T06:03:48;99107.06;;;12.82;100.00
11349;BME280;5729;43.570;27.826;2022-09-21T06:06:16;99116.13;;;12.97;100.00
11349;BME280;5729;43.570;27.826;2022-09-21T06:08:42;99120.81;;;13.03;100.00
11349;BME280;5729;43.570;27.826;2022-09-21T06:11:07;99111.97;;;13.06;100.00
11349;BME280;5729;43.570;27.826;2022-09-21T06:13:32;99120.22;;;13.21;100.00
11349;BME280;5729;43.570;27.826;2022-09-21T06:16:01;99112.09;;;13.21;100.00
11349;BME280;5729;43.570;27.826;2022-09-21T06:18:27;99108.34;;;13.29;100.00
11349;BME280;5729;43.570;27.826;2022-09-21T06:20:52;99111.50;;;13.38;100.00
11349;BME280;5729;43.570;27.826;2022-09-21T06:23:17;99117.78;;;13.49;100.00
11349;BME280;5729;43.570;27.826;2022-09-21T06:25:43;99124.81;;;13.54;100.00
11349;BME280;5729;43.570;27.826;2022-09-21T06:28:11;99127.19;;;13.66;100.00
11349;BME280;5729;43.570;27.826;2022-09-21T06:30:37;99124.91;;;13.68;100.00
11349;BME280;5729;43.570;27.826;2022-09-21T06:33:05;99128.03;;;13.73;100.00
11349;BME280;5729;43.570;27.826;2022-09-21T06:35:32;99121.88;;;13.76;100.00
11349;BME280;5729;43.570;27.826;2022-09-21T06:38:02;99128.53;;;13.86;100.00
11349;BME280;5729;43.570;27.826;2022-09-21T06:40:29;99132.78;;;13.87;100.00
11349;BME280;5729;43.570;27.826;2022-09-21T06:42:59;99129.34;;;13.94;100.00
11349;BME280;5729;43.570;27.826;2022-09-21T06:45:26;99134.84;;;14.04;100.00
11349;BME280;5729;43.570;27.826;2022-09-21T06:47:52;99132.94;;;14.08;100.00
11349;BME280;5729;43.570;27.826;2022-09-21T06:50:18;99136.81;;;14.14;100.00
11349;BME280;5729;43.570;27.826;2022-09-21T06:52:43;99127.59;;;14.26;100.00
11349;BME280;5729;43.570;27.826;2022-09-21T06:55:09;99142.38;;;14.32;100.00
11349;BME280;5729;43.570;27.826;2022-09-21T06:57:35;99137.03;;;14.43;100.00
11349;BME280;5729;43.570;27.826;2022-09-21T07:00:06;99126.56;;;14.48;100.00
11349;BME280;5729;43.570;27.826;2022-09-21T07:02:31;99127.81;;;14.65;100.00
11349;BME280;5729;43.570;27.826;2022-09-21T07:04:57;99135.63;;;14.77;100.00
11349;BME280;5729;43.570;27.826;2022-09-21T07:07:23;99117.75;;;14.73;100.00
11349;BME280;5729;43.570;27.826;2022-09-21T07:09:49;99128.66;;;14.87;100.00
11349;BME280;5729;43.570;27.826;2022-09-21T07:12:15;99127.13;;;14.97;100.00
11349;BME280;5729;43.570;27.826;2022-09-21T07:14:40;99137.25;;;15.10;100.00
11349;BME280;5729;43.570;27.826;2022-09-21T07:17:09;99131.44;;;15.15;100.00
11349;BME280;5729;43.570;27.826;2022-09-21T07:19:35;99128.72;;;15.15;100.00
11349;BME280;5729;43.570;27.826;2022-09-21T07:22:00;99130.69;;;15.18;100.00
11349;BME280;5729;43.570;27.826;2022-09-21T07:24:25;99138.84;;;15.22;100.00
11349;BME280;5729;43.570;27.826;2022-09-21T07:26:51;99145.41;;;15.21;100.00
11349;BME280;5729;43.570;27.826;2022-09-21T07:29:17;99140.00;;;15.28;100.00
11349;BME280;5729;43.570;27.826;2022-09-21T07:31:43;99145.03;;;15.26;100.00
11349;BME280;5729;43.570;27.826;2022-09-21T07:34:10;99144.25;;;15.25;100.00
11349;BME280;5729;43.570;27.826;2022-09-21T07:36:35;99133.03;;;15.31;100.00
11349;BME280;5729;43.570;27.826;2022-09-21T07:39:02;99141.19;;;15.41;100.00
11349;BME280;5729;43.570;27.826;2022-09-21T07:41:28;99136.13;;;15.47;98.30
11349;BME280;5729;43.570;27.826;2022-09-21T07:43:53;99140.44;;;15.55;99.46
11349;BME280;5729;43.570;27.826;2022-09-21T07:46:19;99153.63;;;15.60;90.20
11349;BME280;5729;43.570;27.826;2022-09-21T07:48:45;99142.75;;;15.60;90.45
11349;BME280;5729;43.570;27.826;2022-09-21T07:51:12;99142.75;;;15.71;96.90
11349;BME280;5729;43.570;27.826;2022-09-21T07:53:40;99143.53;;;15.85;93.72
11349;BME280;5729;43.570;27.826;2022-09-21T07:56:09;99141.19;;;15.94;93.51
11349;BME280;5729;43.570;27.826;2022-09-21T07:58:35;99137.69;;;16.08;85.70
11349;BME280;5729;43.570;27.826;2022-09-21T08:01:20;99136.47;;;16.27;86.08
11349;BME280;5729;43.570;27.826;2022-09-21T08:03:53;99138.03;;;16.35;89.47
11349;BME280;5729;43.570;27.826;2022-09-21T08:06:20;99126.66;;;16.58;89.81
11349;BME280;5729;43.570;27.826;2022-09-21T08:08:46;99110.28;;;16.72;87.05
11349;BME280;5729;43.570;27.826;2022-09-21T08:11:16;99126.41;;;17.15;87.87
11349;BME280;5729;43.570;27.826;2022-09-21T08:13:44;99132.34;;;17.54;74.92
11349;BME280;5729;43.570;27.826;2022-09-21T08:16:09;99134.03;;;18.95;68.11
11349;BME280;5729;43.570;27.826;2022-09-21T08:18:36;99128.81;;;21.55;54.26
11349;BME280;5729;43.570;27.826;2022-09-21T08:21:02;99122.03;;;23.17;46.96
11349;BME280;5729;43.570;27.826;2022-09-21T08:23:28;99130.97;;;24.50;43.28
11349;BME280;5729;43.570;27.826;2022-09-21T08:26:02;99141.75;;;26.26;36.40
11349;BME280;5729;43.570;27.826;2022-09-21T08:28:30;99129.19;;;28.17;35.58
11349;BME280;5729;43.570;27.826;2022-09-21T08:31:02;99129.88;;;29.30;32.51
11349;BME280;5729;43.570;27.826;2022-09-21T08:33:28;99129.22;;;30.57;29.99
11349;BME280;5729;43.570;27.826;2022-09-21T08:35:54;99134.72;;;31.94;27.63
11349;BME280;5729;43.570;27.826;2022-09-21T08:38:21;99126.25;;;32.42;25.83
11349;BME280;5729;43.570;27.826;2022-09-21T08:40:47;99117.69;;;33.24;25.63
11349;BME280;5729;43.570;27.826;2022-09-21T08:45:48;99107.94;;;33.58;24.80
11349;BME280;5729;43.570;27.826;2022-09-21T08:48:26;99117.47;;;34.43;24.68
11349;BME280;5729;43.570;27.826;2022-09-21T08:50:59;99122.13;;;34.76;23.88
11349;BME280;5729;43.570;27.826;2022-09-21T08:53:33;99101.78;;;35.00;23.53
11349;BME280;5729;43.570;27.826;2022-09-21T08:56:01;99106.22;;;35.44;22.74
11349;BME280;5729;43.570;27.826;2022-09-21T08:58:28;99114.84;;;35.46;24.00
11349;BME280;5729;43.570;27.826;2022-09-21T09:01:18;99110.50;;;34.96;23.67
11349;BME280;5729;43.570;27.826;2022-09-21T09:13:25;99101.63;;;29.67;25.94
11349;BME280;5729;43.570;27.826;2022-09-21T09:15:41;99100.53;;;29.09;29.36
11349;BME280;5729;43.570;27.826;2022-09-21T09:20:46;99086.03;;;29.95;30.14
11349;BME280;5729;43.570;27.826;2022-09-21T09:25:42;99085.03;;;33.76;26.22
11349;BME280;5729;43.570;27.826;2022-09-21T09:28:31;99067.66;;;34.41;25.19
11349;BME280;5729;43.570;27.826;2022-09-21T09:31:10;99075.28;;;34.41;24.21
11349;BME280;5729;43.570;27.826;2022-09-21T09:36:29;99079.59;;;34.42;22.87
11349;BME280;5729;43.570;27.826;2022-09-21T09:39:00;99075.69;;;34.09;22.67
11349;BME280;5729;43.570;27.826;2022-09-21T09:44:23;99068.66;;;30.46;25.88
11349;BME280;5729;43.570;27.826;2022-09-21T09:50:29;99070.44;;;27.90;28.25
11349;BME280;5729;43.570;27.826;2022-09-21T09:53:16;99069.94;;;26.77;31.45
11349;BME280;5729;43.570;27.826;2022-09-21T09:55:47;99070.06;;;25.77;31.82
11349;BME280;5729;43.570;27.826;2022-09-21T10:00:54;99071.13;;;25.03;32.96
11349;BME280;5729;43.570;27.826;2022-09-21T10:03:25;99060.03;;;24.32;33.96
11349;BME280;5729;43.570;27.826;2022-09-21T10:05:51;99064.84;;;24.06;35.09
11349;BME280;5729;43.570;27.826;2022-09-21T10:11:02;99072.22;;;23.28;36.96
11349;BME280;5729;43.570;27.826;2022-09-21T10:13:33;99069.38;;;22.93;36.57
11349;BME280;5729;43.570;27.826;2022-09-21T10:16:18;99070.56;;;22.67;36.39
11349;BME280;5729;43.570;27.826;2022-09-21T10:18:57;99066.59;;;22.68;37.52
11349;BME280;5729;43.570;27.826;2022-09-21T10:23:57;99066.09;;;22.98;38.12
11349;BME280;5729;43.570;27.826;2022-09-21T10:26:30;99061.97;;;23.53;38.75
11349;BME280;5729;43.570;27.826;2022-09-21T10:28:59;99063.78;;;25.09;35.89
11349;BME280;5729;43.570;27.826;2022-09-21T10:31:30;99059.72;;;25.41;34.61
11349;BME280;5729;43.570;27.826;2022-09-21T10:34:12;99053.63;;;25.55;34.98
11349;BME280;5729;43.570;27.826;2022-09-21T10:36:39;99054.75;;;26.03;33.66
11349;BME280;5729;43.570;27.826;2022-09-21T10:41:47;99043.75;;;27.06;33.93
11349;BME280;5729;43.570;27.826;2022-09-21T10:44:15;99033.38;;;27.87;31.46
11349;BME280;5729;43.570;27.826;2022-09-21T10:46:42;99026.28;;;27.71;31.72
11349;BME280;5729;43.570;27.826;2022-09-21T10:49:19;99028.63;;;27.16;30.87
11349;BME280;5729;43.570;27.826;2022-09-21T10:51:47;99025.66;;;26.87;31.84
11349;BME280;5729;43.570;27.826;2022-09-21T10:54:21;99038.13;;;26.22;32.48
11349;BME280;5729;43.570;27.826;2022-09-21T10:56:57;99044.00;;;25.78;33.02
11349;BME280;5729;43.570;27.826;2022-09-21T10:59:27;99035.25;;;24.94;35.01
11349;BME280;5729;43.570;27.826;2022-09-21T11:01:56;99032.22;;;24.70;35.58
11349;BME280;5729;43.570;27.826;2022-09-21T11:07:02;99031.25;;;24.33;34.94
11349;BME280;5729;43.570;27.826;2022-09-21T11:09:40;99035.16;;;24.01;35.33
11349;BME280;5729;43.570;27.826;2022-09-21T11:20:25;99029.50;;;23.83;35.64
11349;BME280;5729;43.570;27.826;2022-09-21T11:28:44;99020.03;;;24.06;35.08
11349;BME280;5729;43.570;27.826;2022-09-21T11:36:41;99008.44;;;24.11;35.86
11349;BME280;5729;43.570;27.826;2022-09-21T11:42:04;99014.41;;;24.31;35.14
11349;BME280;5729;43.570;27.826;2022-09-21T11:44:34;99001.72;;;24.12;35.97
11349;BME280;5729;43.570;27.826;2022-09-21T12:09:56;98980.09;;;23.10;38.08
11349;BME280;5729;43.570;27.826;2022-09-21T12:15:26;98981.06;;;23.04;38.35
11349;BME280;5729;43.570;27.826;2022-09-21T12:18:09;98979.50;;;23.15;37.97
11349;BME280;5729;43.570;27.826;2022-09-21T12:20:47;98976.91;;;23.12;36.53
11349;BME280;5729;43.570;27.826;2022-09-21T12:23:20;98987.25;;;22.95;36.79
11349;BME280;5729;43.570;27.826;2022-09-21T12:25:53;98985.59;;;22.72;37.78
11349;BME280;5729;43.570;27.826;2022-09-21T12:28:26;98994.72;;;22.44;37.66
11349;BME280;5729;43.570;27.826;2022-09-21T12:30:57;98990.59;;;22.11;37.84
11349;BME280;5729;43.570;27.826;2022-09-21T12:33:48;98987.75;;;21.85;38.47
11349;BME280;5729;43.570;27.826;2022-09-21T12:39:23;98997.44;;;21.45;38.66
11349;BME280;5729;43.570;27.826;2022-09-21T12:44:46;99001.16;;;21.06;38.03
11349;BME280;5729;43.570;27.826;2022-09-21T12:47:23;99003.19;;;21.01;38.65
11349;BME280;5729;43.570;27.826;2022-09-21T12:49:55;98991.06;;;20.86;38.35
11349;BME280;5729;43.570;27.826;2022-09-21T12:52:24;98998.31;;;20.93;40.52
11349;BME280;5729;43.570;27.826;2022-09-21T13:00:14;98986.09;;;20.97;37.38
11349;BME280;5729;43.570;27.826;2022-09-21T13:12:58;99003.66;;;20.48;37.92
11349;BME280;5729;43.570;27.826;2022-09-21T13:15:29;98997.84;;;20.26;38.87
11349;BME280;5729;43.570;27.826;2022-09-21T13:18:03;99004.38;;;20.12;39.69
11349;BME280;5729;43.570;27.826;2022-09-21T13:20:39;99004.94;;;20.04;40.30
11349;BME280;5729;43.570;27.826;2022-09-21T13:23:15;99007.72;;;20.00;40.79
11349;BME280;5729;43.570;27.826;2022-09-21T13:25:47;99010.56;;;19.97;43.29
11349;BME280;5729;43.570;27.826;2022-09-21T13:28:17;99011.34;;;19.97;45.44
11349;BME280;5729;43.570;27.826;2022-09-21T13:33:29;98998.59;;;19.87;42.30
11349;BME280;5729;43.570;27.826;2022-09-21T13:36:02;99008.72;;;19.90;43.06
11349;BME280;5729;43.570;27.826;2022-09-21T13:51:31;99015.53;;;19.82;41.54
11349;BME280;5729;43.570;27.826;2022-09-21T13:54:00;98999.47;;;19.84;45.60
11349;BME280;5729;43.570;27.826;2022-09-21T13:56:27;99011.34;;;19.97;43.15
11349;BME280;5729;43.570;27.826;2022-09-21T13:58:55;99009.63;;;20.03;43.64
11349;BME280;5729;43.570;27.826;2022-09-21T14:01:31;99007.75;;;20.20;43.34
11349;BME280;5729;43.570;27.826;2022-09-21T14:04:00;98996.72;;;20.23;44.04
11349;BME280;5729;43.570;27.826;2022-09-21T14:06:42;99008.63;;;20.33;44.21
11349;BME280;5729;43.570;27.826;2022-09-21T14:09:39;99014.19;;;20.29;43.60
11349;BME280;5729;43.570;27.826;2022-09-21T14:12:11;99010.75;;;19.86;45.78
11349;BME280;5729;43.570;27.826;2022-09-21T14:14:42;99027.47;;;19.45;49.97
11349;BME280;5729;43.570;27.826;2022-09-21T14:17:35;99034.53;;;18.96;54.95
11349;BME280;5729;43.570;27.826;2022-09-21T14:20:02;99047.19;;;18.52;59.63
11349;BME280;5729;43.570;27.826;2022-09-21T14:22:32;99047.97;;;18.22;66.97
11349;BME280;5729;43.570;27.826;2022-09-21T14:25:52;99073.72;;;18.18;73.55
11349;BME280;5729;43.570;27.826;2022-09-21T14:28:31;99075.38;;;18.11;100.00
11349;BME280;5729;43.570;27.826;2022-09-21T14:31:05;99080.25;;;17.93;100.00
11349;BME280;5729;43.570;27.826;2022-09-21T14:33:59;99080.44;;;17.72;100.00
11349;BME280;5729;43.570;27.826;2022-09-21T14:36:36;99085.56;;;17.11;100.00
11349;BME280;5729;43.570;27.826;2022-09-21T14:39:14;99090.19;;;16.38;100.00
11349;BME280;5729;43.570;27.826;2022-09-21T14:41:43;99072.13;;;15.74;100.00
11349;BME280;5729;43.570;27.826;2022-09-21T14:44:24;99067.06;;;15.05;100.00
11349;BME280;5729;43.570;27.826;2022-09-21T15:01:35;99097.13;;;13.81;100.00
11349;BME280;5729;43.570;27.826;2022-09-21T15:18:21;99098.28;;;13.29;100.00
11349;BME280;5729;43.570;27.826;2022-09-21T15:21:01;99108.06;;;13.44;100.00
11349;BME280;5729;43.570;27.826;2022-09-21T15:23:38;99111.69;;;13.59;100.00
11349;BME280;5729;43.570;27.826;2022-09-21T15:26:08;99122.63;;;13.73;100.00
11349;BME280;5729;43.570;27.826;2022-09-21T15:28:38;99103.59;;;13.66;100.00
11349;BME280;5729;43.570;27.826;2022-09-21T15:31:07;99112.56;;;13.74;100.00
11349;BME280;5729;43.570;27.826;2022-09-21T15:33:40;99072.59;;;13.57;100.00
11349;BME280;5729;43.570;27.826;2022-09-21T15:36:08;99095.66;;;13.88;100.00
11349;BME280;5729;43.570;27.826;2022-09-21T15:38:34;99103.06;;;13.98;100.00
11349;BME280;5729;43.570;27.826;2022-09-21T15:41:01;99085.63;;;13.95;100.00
11349;BME280;5729;43.570;27.826;2022-09-21T15:43:27;99096.84;;;13.94;100.00
11349;BME280;5729;43.570;27.826;2022-09-21T15:48:25;99078.47;;;13.69;100.00
11349;BME280;5729;43.570;27.826;2022-09-21T15:50:56;99085.50;;;13.77;100.00
11349;BME280;5729;43.570;27.826;2022-09-21T15:53:30;99082.78;;;13.77;100.00
11349;BME280;5729;43.570;27.826;2022-09-21T15:55:57;99100.69;;;13.93;100.00
11349;BME280;5729;43.570;27.826;2022-09-21T15:58:37;99084.03;;;13.87;100.00
11349;BME280;5729;43.570;27.826;2022-09-21T16:01:14;99099.88;;;13.89;100.00
11349;BME280;5729;43.570;27.826;2022-09-21T16:03:41;99086.63;;;13.73;100.00
11349;BME280;5729;43.570;27.826;2022-09-21T16:06:28;99097.16;;;13.85;100.00
11349;BME280;5729;43.570;27.826;2022-09-21T16:11:54;99105.31;;;13.89;100.00
11349;BME280;5729;43.570;27.826;2022-09-21T16:14:20;99095.97;;;13.82;100.00
11349;BME280;5729;43.570;27.826;2022-09-21T16:22:20;99104.16;;;13.86;100.00
11349;BME280;5729;43.570;27.826;2022-09-21T16:24:52;99098.72;;;13.86;100.00
11349;BME280;5729;43.570;27.826;2022-09-21T16:27:22;99113.13;;;13.97;100.00
11349;BME280;5729;43.570;27.826;2022-09-21T16:29:50;99112.34;;;14.00;100.00
11349;BME280;5729;43.570;27.826;2022-09-21T16:34:50;99098.06;;;14.07;100.00
11349;BME280;5729;43.570;27.826;2022-09-21T16:37:24;99111.66;;;14.14;100.00